Terminal Aerodrome Forecast
Issued by NWS Wilmington, NC

Home | Current Version | Previous Version | Text Only | Print | Product List | Glossary On
Versions: 1 2 3 4 5 6 7 8 9 10 11 12 13
145
FTUS42 KILM 282346 CCA
TAFMYR
TAF COR
KMYR 282346Z 2900/2924 11005KT P6SM SCT250
     FM290400 07003KT P6SM SKC
     FM291300 10009KT P6SM SCT025
     FM291800 14011G18KT P6SM SCT250
      AMD LTD TO CLD VIS AND WIND 2903/2910=

USA.gov is the U.S. government's official web portal to all federal, state and local government web resources and services.